createdAt,value
2017-10-26T00:00:33.088Z,68.70
2017-10-26T00:02:59.405Z,68.60
2017-10-26T00:05:27.340Z,68.00
2017-10-26T00:07:53.635Z,68.00
2017-10-26T00:10:26.669Z,68.10
2017-10-26T00:12:55.571Z,68.50
2017-10-26T00:15:21.957Z,68.20
2017-10-26T00:17:49.022Z,68.50
2017-10-26T00:20:15.333Z,68.20
2017-10-26T00:22:41.645Z,68.70
2017-10-26T00:25:08.720Z,68.70
2017-10-26T00:27:35.861Z,68.90
2017-10-26T00:30:02.269Z,68.60
2017-10-26T00:32:28.581Z,68.70
2017-10-26T00:34:54.917Z,68.70
2017-10-26T00:37:21.242Z,68.70
2017-10-26T00:39:47.558Z,68.60
2017-10-26T00:42:13.861Z,68.70
2017-10-26T00:44:40.165Z,68.80
2017-10-26T00:47:06.480Z,68.70
2017-10-26T00:49:32.796Z,68.70
2017-10-26T00:51:59.233Z,69.30
2017-10-26T00:54:26.256Z,68.70
2017-10-26T00:56:52.555Z,68.70
2017-10-26T00:59:18.834Z,68.80
2017-10-26T01:01:45.132Z,68.50
2017-10-26T01:04:11.655Z,68.80
2017-10-26T01:06:37.968Z,68.60
2017-10-26T01:09:05.002Z,67.70
2017-10-26T01:11:31.301Z,67.60
2017-10-26T01:13:58.707Z,68.10
2017-10-26T01:16:25.020Z,68.50
2017-10-26T01:18:51.336Z,68.30
2017-10-26T01:21:17.626Z,68.40
2017-10-26T01:23:44.678Z,68.10
2017-10-26T01:26:11.327Z,68.10
2017-10-26T01:28:39.367Z,68.10
2017-10-26T01:31:07.517Z,68.80
2017-10-26T01:33:33.784Z,68.80
2017-10-26T01:36:00.068Z,68.80
2017-10-26T01:38:26.389Z,68.40
2017-10-26T01:40:53.430Z,68.30
2017-10-26T01:43:19.717Z,68.20
2017-10-26T01:45:46.007Z,68.90
2017-10-26T01:48:12.722Z,68.80
2017-10-26T01:50:39.066Z,69.00
2017-10-26T01:53:06.115Z,68.70
2017-10-26T01:55:32.417Z,68.70
2017-10-26T01:57:58.729Z,68.80
2017-10-26T02:00:25.024Z,68.20
2017-10-26T02:02:51.330Z,67.70
2017-10-26T02:05:18.361Z,67.80
2017-10-26T02:07:44.685Z,67.70
2017-10-26T02:10:10.995Z,67.80
2017-10-26T02:12:39.481Z,67.80
2017-10-26T02:15:05.770Z,68.10
2017-10-26T02:17:32.789Z,68.80
2017-10-26T02:19:59.065Z,68.80
2017-10-26T02:22:26.129Z,68.30
2017-10-26T02:24:53.205Z,68.90
2017-10-26T02:27:19.502Z,68.80
2017-10-26T02:29:58.177Z,68.80
2017-10-26T02:32:24.488Z,68.70
2017-10-26T02:34:50.777Z,68.70
2017-10-26T02:37:17.821Z,68.10
2017-10-26T02:39:44.141Z,68.10
2017-10-26T02:42:10.408Z,68.00
2017-10-26T02:44:36.736Z,67.90
2017-10-26T02:47:09.913Z,67.60
2017-10-26T02:49:36.234Z,67.50
2017-10-26T02:52:02.342Z,68.10
2017-10-26T02:54:28.462Z,68.10
2017-10-26T02:56:55.322Z,68.10
2017-10-26T02:59:22.227Z,67.80
2017-10-26T03:01:48.345Z,67.70
2017-10-26T03:04:14.458Z,67.20
2017-10-26T03:06:41.573Z,67.20
2017-10-26T03:09:07.700Z,67.10
2017-10-26T03:11:34.559Z,67.00
2017-10-26T03:14:01.420Z,67.40
2017-10-26T03:16:28.260Z,67.60
2017-10-26T03:18:55.046Z,67.60
2017-10-26T03:21:21.899Z,67.80
2017-10-26T03:23:48.025Z,67.80
2017-10-26T03:26:14.134Z,67.60
2017-10-26T03:28:40.229Z,67.40
2017-10-26T03:31:06.329Z,67.70
2017-10-26T03:33:34.637Z,67.90
2017-10-26T03:36:00.780Z,68.00
2017-10-26T03:38:26.901Z,68.30
2017-10-26T03:40:52.996Z,68.90
2017-10-26T03:43:19.661Z,68.70
2017-10-26T03:45:45.985Z,68.70
2017-10-26T03:48:13.538Z,68.30
2017-10-26T03:50:39.873Z,68.40
2017-10-26T03:53:06.906Z,67.80
2017-10-26T03:55:35.301Z,67.60
2017-10-26T03:58:01.377Z,68.20
2017-10-26T04:00:28.198Z,68.70
2017-10-26T04:02:54.326Z,68.70
2017-10-26T04:05:20.656Z,68.60
2017-10-26T04:07:46.932Z,67.90
2017-10-26T04:10:13.216Z,67.90
2017-10-26T04:12:39.516Z,67.80
2017-10-26T04:15:05.801Z,69.00
2017-10-26T04:17:32.089Z,67.60
2017-10-26T04:19:59.112Z,67.30
2017-10-26T04:22:25.407Z,67.20
2017-10-26T04:24:51.713Z,67.60
2017-10-26T04:27:18.144Z,67.70
2017-10-26T04:29:44.425Z,67.40
2017-10-26T04:32:10.811Z,67.70
2017-10-26T04:34:37.839Z,67.60
2017-10-26T04:37:04.156Z,67.60
2017-10-26T04:39:31.172Z,67.70
2017-10-26T04:41:57.457Z,67.60
2017-10-26T04:44:23.741Z,67.60
2017-10-26T04:46:50.203Z,67.60
2017-10-26T04:49:17.830Z,67.70
2017-10-26T04:51:44.920Z,67.40
2017-10-26T04:54:11.471Z,67.30
2017-10-26T04:56:37.745Z,67.80
2017-10-26T04:59:04.063Z,67.80
2017-10-26T05:01:31.121Z,68.10
2017-10-26T05:03:58.193Z,68.00
2017-10-26T05:06:24.549Z,68.00
2017-10-26T05:08:50.862Z,67.80
2017-10-26T05:11:17.152Z,67.90
2017-10-26T05:13:44.197Z,68.30
2017-10-26T05:16:10.502Z,68.30
2017-10-26T05:18:36.852Z,68.50
2017-10-26T05:21:05.683Z,68.50
2017-10-26T05:23:31.993Z,68.10
2017-10-26T05:25:58.313Z,68.40
2017-10-26T05:28:24.908Z,67.80
2017-10-26T05:30:51.249Z,67.80
2017-10-26T05:33:17.585Z,67.80
2017-10-26T05:35:43.920Z,67.80
2017-10-26T05:38:11.040Z,68.00
2017-10-26T05:40:37.433Z,67.60
2017-10-26T05:43:03.792Z,67.90
2017-10-26T05:48:01.606Z,67.90
2017-10-26T05:50:27.937Z,68.00
2017-10-26T05:52:54.252Z,68.00
2017-10-26T05:55:33.152Z,67.50
2017-10-26T05:58:09.418Z,67.40
2017-10-26T06:00:36.768Z,67.60
2017-10-26T06:03:02.864Z,67.70
2017-10-26T06:05:29.720Z,67.80
2017-10-26T06:07:55.805Z,67.70
2017-10-26T06:10:21.872Z,67.70
2017-10-26T06:13:03.261Z,68.60
2017-10-26T06:15:32.590Z,67.90
2017-10-26T06:17:58.711Z,68.30
2017-10-26T06:20:24.817Z,68.70
2017-10-26T06:22:54.610Z,68.60
2017-10-26T06:25:20.697Z,68.60
2017-10-26T06:27:46.796Z,68.70
2017-10-26T06:30:12.894Z,68.60
2017-10-26T06:32:39.875Z,68.10
2017-10-26T06:35:06.014Z,68.10
2017-10-26T06:37:32.873Z,67.30
2017-10-26T06:39:59.000Z,67.20
2017-10-26T06:42:25.129Z,67.80
2017-10-26T06:44:53.445Z,67.50
2017-10-26T06:47:19.533Z,67.70
2017-10-26T06:49:46.384Z,67.80
2017-10-26T06:52:12.650Z,67.80
2017-10-26T06:54:38.780Z,67.90
2017-10-26T06:57:05.646Z,67.60
2017-10-26T06:59:37.065Z,67.80
2017-10-26T07:02:03.208Z,67.80
2017-10-26T07:04:29.390Z,67.80
2017-10-26T07:06:55.536Z,67.50
2017-10-26T07:09:21.649Z,68.20
2017-10-26T07:11:47.748Z,68.30
2017-10-26T07:14:13.862Z,67.90
2017-10-26T07:16:39.987Z,67.80
2017-10-26T07:19:06.110Z,67.30
2017-10-26T07:21:32.280Z,66.60
2017-10-26T07:23:58.386Z,66.90
2017-10-26T07:26:24.534Z,67.20
2017-10-26T07:28:50.656Z,67.20
2017-10-26T07:31:23.147Z,67.00
2017-10-26T07:33:53.587Z,67.40
2017-10-26T07:36:19.766Z,67.60
2017-10-26T07:38:46.970Z,67.40
2017-10-26T07:41:13.156Z,67.20
2017-10-26T07:43:39.997Z,67.40
2017-10-26T07:46:06.865Z,67.20
2017-10-26T07:48:50.182Z,67.30
2017-10-26T07:51:16.313Z,67.30
2017-10-26T07:54:00.152Z,67.30
2017-10-26T07:56:26.239Z,67.00
2017-10-26T07:58:52.337Z,67.70
2017-10-26T08:01:24.597Z,67.00
2017-10-26T08:03:50.681Z,66.70
2017-10-26T08:06:16.789Z,66.40
2017-10-26T08:08:42.924Z,66.50
2017-10-26T08:11:09.038Z,66.70
2017-10-26T08:13:35.129Z,67.00
2017-10-26T08:16:01.244Z,66.80
2017-10-26T08:18:29.345Z,66.60
2017-10-26T08:20:56.179Z,66.90
2017-10-26T08:23:22.269Z,66.80
2017-10-26T08:25:48.381Z,66.80
2017-10-26T08:28:14.501Z,66.90
2017-10-26T08:30:40.584Z,66.50
2017-10-26T08:33:07.402Z,66.50
2017-10-26T08:35:36.849Z,66.40
2017-10-26T08:38:02.941Z,66.60
2017-10-26T08:40:29.021Z,66.20
2017-10-26T08:42:55.119Z,66.40
2017-10-26T08:45:21.216Z,66.50
2017-10-26T08:47:48.403Z,66.60
2017-10-26T08:50:15.245Z,67.10
2017-10-26T08:52:48.162Z,67.00
2017-10-26T08:55:14.511Z,66.70
2017-10-26T08:57:40.592Z,66.20
2017-10-26T09:00:07.414Z,65.90
2017-10-26T09:02:33.530Z,65.90
2017-10-26T09:04:59.634Z,67.00
2017-10-26T09:07:25.721Z,66.70
2017-10-26T09:09:58.609Z,66.40
2017-10-26T09:12:24.702Z,65.30
2017-10-26T09:14:51.287Z,65.30
2017-10-26T09:17:18.630Z,66.00
2017-10-26T09:19:44.788Z,66.10
2017-10-26T09:22:10.882Z,65.00
2017-10-26T09:24:43.424Z,65.00
2017-10-26T09:27:09.521Z,65.40
2017-10-26T09:29:35.709Z,65.60
2017-10-26T09:32:01.797Z,65.40
2017-10-26T09:34:28.634Z,65.00
2017-10-26T09:36:54.710Z,65.00
2017-10-26T09:39:21.591Z,64.60
2017-10-26T09:41:50.952Z,64.60
2017-10-26T09:44:17.038Z,63.90
2017-10-26T09:46:43.867Z,63.80
2017-10-26T09:49:10.056Z,63.80
2017-10-26T09:51:36.140Z,64.70
2017-10-26T09:54:02.224Z,64.10
2017-10-26T09:56:28.319Z,63.90
2017-10-26T09:58:57.613Z,64.10
2017-10-26T10:01:23.762Z,64.00
2017-10-26T10:03:50.577Z,63.30
2017-10-26T10:06:17.433Z,63.40
2017-10-26T10:08:44.294Z,63.30
2017-10-26T10:11:11.229Z,64.10
2017-10-26T10:13:37.305Z,64.10
2017-10-26T10:16:09.811Z,63.20
2017-10-26T10:18:35.889Z,63.10
2017-10-26T10:21:02.740Z,62.90
2017-10-26T10:23:29.601Z,62.30
2017-10-26T10:25:55.686Z,62.30
2017-10-26T10:28:21.803Z,62.50
2017-10-26T10:30:53.909Z,62.30
2017-10-26T10:33:20.042Z,62.30
2017-10-26T10:35:46.349Z,62.90
2017-10-26T10:38:12.513Z,62.60
2017-10-26T10:40:39.425Z,62.40
2017-10-26T10:43:06.282Z,61.80
2017-10-26T10:45:32.374Z,61.80
2017-10-26T10:48:02.308Z,61.60
2017-10-26T10:50:28.403Z,60.90
2017-10-26T10:52:54.487Z,60.80
2017-10-26T10:55:20.589Z,60.80
2017-10-26T10:57:46.696Z,61.50
2017-10-26T11:00:18.793Z,61.30
2017-10-26T11:02:44.870Z,60.90
2017-10-26T11:05:15.575Z,60.80
2017-10-26T11:07:42.461Z,61.00
2017-10-26T11:10:08.542Z,60.80
2017-10-26T11:12:35.398Z,60.80
2017-10-26T11:15:02.250Z,60.60
2017-10-26T11:17:28.341Z,59.80
2017-10-26T11:19:54.448Z,59.70
2017-10-26T11:22:25.648Z,60.40
2017-10-26T11:24:51.778Z,60.00
2017-10-26T11:27:18.648Z,59.90
2017-10-26T11:29:44.734Z,59.80
2017-10-26T11:32:11.550Z,60.80
2017-10-26T11:34:37.678Z,60.90
2017-10-26T11:37:03.840Z,60.00
2017-10-26T11:39:29.921Z,60.60
2017-10-26T11:42:02.797Z,60.80
2017-10-26T11:44:28.907Z,59.80
2017-10-26T11:46:55.083Z,59.90
2017-10-26T11:49:21.166Z,58.80
2017-10-26T11:51:47.301Z,58.30
2017-10-26T11:54:13.558Z,58.60
2017-10-26T11:56:39.687Z,57.70
2017-10-26T11:59:05.805Z,57.90
2017-10-26T12:01:35.850Z,57.30
2017-10-26T12:04:01.985Z,57.00
2017-10-26T12:06:28.148Z,57.70
2017-10-26T12:08:54.281Z,57.90
2017-10-26T12:11:21.132Z,57.60
2017-10-26T12:13:47.256Z,57.60
2017-10-26T12:16:13.497Z,57.50
2017-10-26T12:18:39.629Z,57.60
2017-10-26T12:21:10.881Z,57.30
2017-10-26T12:23:37.753Z,57.90
2017-10-26T12:26:03.878Z,57.80
2017-10-26T12:28:30.128Z,57.30
2017-10-26T12:30:56.257Z,58.10
2017-10-26T12:33:22.402Z,56.00
2017-10-26T12:35:48.558Z,55.70
2017-10-26T12:38:14.732Z,55.90
2017-10-26T12:40:42.947Z,55.50
2017-10-26T12:43:09.143Z,55.40
2017-10-26T12:45:35.285Z,56.00
2017-10-26T12:48:01.401Z,56.00
2017-10-26T12:50:28.314Z,56.40
2017-10-26T12:52:54.429Z,56.50
2017-10-26T12:55:20.581Z,56.20
2017-10-26T12:57:50.207Z,55.80
2017-10-26T13:00:16.340Z,55.60
2017-10-26T13:02:42.486Z,55.60
2017-10-26T13:05:09.388Z,55.10
2017-10-26T13:07:36.306Z,56.10
2017-10-26T13:10:03.192Z,55.30
2017-10-26T13:12:29.325Z,55.60
2017-10-26T13:14:55.972Z,54.60
2017-10-26T13:17:22.844Z,55.30
2017-10-26T13:19:49.706Z,55.30
2017-10-26T13:22:15.832Z,54.60
2017-10-26T13:24:41.949Z,54.10
2017-10-26T13:27:08.877Z,54.20
2017-10-26T13:32:06.613Z,54.20
2017-10-26T13:34:33.489Z,54.70
2017-10-26T13:37:00.345Z,53.60
2017-10-26T13:39:26.562Z,53.50
2017-10-26T13:41:52.694Z,54.00
2017-10-26T13:44:18.889Z,54.00
2017-10-26T13:46:45.784Z,52.70
2017-10-26T13:49:11.912Z,52.70
2017-10-26T13:51:38.036Z,52.80
2017-10-26T13:54:04.125Z,51.80
2017-10-26T13:56:30.247Z,52.40
2017-10-26T13:58:56.342Z,53.10
2017-10-26T14:01:24.503Z,52.60
2017-10-26T14:03:51.647Z,52.40
2017-10-26T14:06:19.332Z,50.90
2017-10-26T14:08:45.513Z,50.90
2017-10-26T14:11:12.405Z,50.10
2017-10-26T14:13:38.522Z,50.50
2017-10-26T14:16:06.644Z,50.60
2017-10-26T14:18:32.717Z,51.30
2017-10-26T14:20:59.569Z,51.70
2017-10-26T14:23:25.681Z,51.70
2017-10-26T14:25:51.781Z,52.00
2017-10-26T14:28:17.883Z,51.70
2017-10-26T14:30:44.019Z,51.90
2017-10-26T14:33:10.126Z,52.70
2017-10-26T14:35:36.224Z,51.10
2017-10-26T14:38:02.349Z,52.40
2017-10-26T14:40:28.688Z,52.60
2017-10-26T14:42:54.795Z,52.20
2017-10-26T14:45:20.908Z,52.30
2017-10-26T14:47:47.824Z,52.80
2017-10-26T14:50:19.593Z,52.80
2017-10-26T14:52:45.693Z,52.60
2017-10-26T14:55:12.540Z,52.50
2017-10-26T14:57:39.427Z,53.50
2017-10-26T15:00:05.495Z,54.10
2017-10-26T15:02:31.584Z,53.00
2017-10-26T15:04:57.966Z,53.10
2017-10-26T15:07:24.157Z,53.70
2017-10-26T15:09:50.637Z,53.40
2017-10-26T15:12:16.883Z,53.60
2017-10-26T15:14:43.768Z,55.10
2017-10-26T15:17:09.860Z,54.80
2017-10-26T15:19:36.015Z,53.90
2017-10-26T15:22:02.170Z,53.00
2017-10-26T15:24:28.989Z,54.10
2017-10-26T15:26:55.152Z,54.10
2017-10-26T15:29:21.362Z,54.60
2017-10-26T15:31:47.489Z,53.70
2017-10-26T15:34:13.699Z,54.00
2017-10-26T15:36:40.621Z,53.80
2017-10-26T15:39:06.714Z,53.70
2017-10-26T15:41:33.568Z,55.40
2017-10-26T15:43:59.656Z,54.70
2017-10-26T15:46:29.595Z,54.20
2017-10-26T15:48:56.416Z,54.90
2017-10-26T15:51:22.508Z,54.90
2017-10-26T15:53:48.600Z,54.30
2017-10-26T15:56:14.697Z,54.80
2017-10-26T15:58:40.799Z,54.40
2017-10-26T16:01:06.911Z,55.30
2017-10-26T16:03:33.013Z,55.20
2017-10-26T16:05:59.127Z,55.60
2017-10-26T16:08:29.513Z,55.70
2017-10-26T16:10:55.640Z,56.50
2017-10-26T16:13:22.492Z,56.70
2017-10-26T16:15:49.346Z,57.00
2017-10-26T16:18:15.692Z,57.00
2017-10-26T16:20:41.921Z,57.00
2017-10-26T16:23:08.072Z,57.50
2017-10-26T16:25:34.176Z,57.60
2017-10-26T16:28:00.323Z,57.20
2017-10-26T16:30:26.410Z,57.70
2017-10-26T16:32:52.598Z,57.60
2017-10-26T16:35:19.449Z,58.10
2017-10-26T16:37:45.636Z,58.00
2017-10-26T16:40:11.790Z,58.40
2017-10-26T16:42:38.090Z,57.90
2017-10-26T16:45:04.971Z,58.30
2017-10-26T16:47:31.197Z,58.40
2017-10-26T16:49:58.180Z,58.90
2017-10-26T16:52:25.092Z,59.20
2017-10-26T16:54:51.245Z,59.10
2017-10-26T16:57:17.375Z,59.20
2017-10-26T16:59:43.493Z,60.20
2017-10-26T17:02:09.627Z,60.10
2017-10-26T17:04:35.766Z,60.40
2017-10-26T17:07:02.209Z,60.10
2017-10-26T17:09:28.355Z,60.10
2017-10-26T17:11:55.207Z,59.20
2017-10-26T17:14:21.356Z,59.20
2017-10-26T17:16:47.467Z,59.60
2017-10-26T17:19:13.804Z,60.10
2017-10-26T17:21:39.905Z,60.00
2017-10-26T17:24:06.055Z,61.10
2017-10-26T17:26:32.179Z,60.80
2017-10-26T17:28:58.312Z,61.10
2017-10-26T17:31:24.453Z,61.10
2017-10-26T17:33:50.582Z,60.90
2017-10-26T17:36:16.728Z,61.10
2017-10-26T17:38:42.849Z,61.80
2017-10-26T17:41:09.713Z,61.70
2017-10-26T17:43:36.573Z,61.40
2017-10-26T17:46:03.447Z,62.00
2017-10-26T17:48:30.321Z,62.50
2017-10-26T17:50:56.454Z,62.50
2017-10-26T17:53:23.357Z,62.90
2017-10-26T17:55:49.453Z,62.90
2017-10-26T17:58:16.373Z,64.90
2017-10-26T18:00:42.516Z,64.80
2017-10-26T18:03:08.756Z,66.20
2017-10-26T18:05:34.842Z,66.90
2017-10-26T18:08:01.142Z,67.10
2017-10-26T18:10:28.543Z,66.70
2017-10-26T18:12:56.414Z,65.30
2017-10-26T18:15:22.593Z,66.10
2017-10-26T18:17:50.050Z,65.80
2017-10-26T18:20:16.192Z,65.10
2017-10-26T18:22:42.292Z,64.90
2017-10-26T18:25:08.413Z,66.00
2017-10-26T18:27:34.517Z,64.90
2017-10-26T18:30:01.374Z,65.00
2017-10-26T18:32:28.250Z,64.70
2017-10-26T18:34:54.446Z,64.70
2017-10-26T18:37:21.539Z,64.10
2017-10-26T18:39:48.399Z,64.10
2017-10-26T18:42:14.489Z,64.10
2017-10-26T18:44:40.586Z,64.50
2017-10-26T18:47:06.689Z,64.60
2017-10-26T18:49:32.809Z,64.10
2017-10-26T18:51:59.848Z,64.00
2017-10-26T18:54:25.933Z,64.50
2017-10-26T18:56:56.332Z,65.60
2017-10-26T18:59:22.427Z,65.60
2017-10-26T19:01:54.244Z,65.30
2017-10-26T19:04:20.342Z,65.30
2017-10-26T19:06:46.590Z,64.80
2017-10-26T19:09:12.816Z,65.20
2017-10-26T19:11:39.908Z,66.70
2017-10-26T19:14:06.033Z,66.70
2017-10-26T19:16:32.156Z,66.50
2017-10-26T19:18:59.024Z,65.40
2017-10-26T19:21:25.933Z,65.10
2017-10-26T19:23:52.049Z,65.10
2017-10-26T19:26:18.271Z,64.90
2017-10-26T19:28:44.389Z,65.60
2017-10-26T19:31:10.537Z,65.60
2017-10-26T19:33:38.651Z,65.60
2017-10-26T19:36:05.681Z,67.00
2017-10-26T19:41:02.913Z,68.20
2017-10-26T19:43:29.093Z,66.90
2017-10-26T19:45:55.198Z,67.00
2017-10-26T19:48:21.366Z,66.40
2017-10-26T19:50:47.628Z,66.00
2017-10-26T19:53:13.770Z,66.50
2017-10-26T19:55:39.889Z,65.80
2017-10-26T19:58:06.025Z,66.00
2017-10-26T20:00:32.989Z,67.20
2017-10-26T20:02:59.140Z,67.10
2017-10-26T20:05:25.986Z,67.10
2017-10-26T20:07:52.132Z,67.00
2017-10-26T20:10:18.364Z,67.10
2017-10-26T20:12:44.477Z,66.90
2017-10-26T20:15:10.609Z,65.50
2017-10-26T20:17:37.454Z,65.80
2017-10-26T20:20:04.105Z,65.80
2017-10-26T20:22:31.027Z,66.20
2017-10-26T20:24:57.174Z,66.20
2017-10-26T20:27:23.305Z,66.20
2017-10-26T20:29:50.152Z,65.70
2017-10-26T20:32:17.029Z,66.00
2017-10-26T20:34:43.912Z,66.70
2017-10-26T20:37:10.075Z,66.70
2017-10-26T20:39:36.208Z,66.00
2017-10-26T20:42:03.604Z,65.20
2017-10-26T20:44:29.768Z,65.20
2017-10-26T20:46:55.899Z,66.00
2017-10-26T20:49:29.211Z,65.80
2017-10-26T20:52:01.630Z,64.90
2017-10-26T20:54:33.829Z,64.40
2017-10-26T20:57:06.193Z,66.00
2017-10-26T20:59:38.582Z,66.80
2017-10-26T21:02:10.814Z,66.70
2017-10-26T21:04:43.974Z,64.20
2017-10-26T21:07:16.305Z,64.20
2017-10-26T21:09:58.007Z,64.30
2017-10-26T21:12:37.088Z,64.10
2017-10-26T21:15:05.571Z,64.10
2017-10-26T21:17:31.803Z,65.70
2017-10-26T21:19:57.924Z,66.00
2017-10-26T21:22:24.788Z,64.90
2017-10-26T21:24:51.144Z,64.80
2017-10-26T21:27:27.048Z,64.40
2017-10-26T21:29:58.039Z,64.40
2017-10-26T21:32:29.034Z,64.40
2017-10-26T21:34:55.484Z,64.40
2017-10-26T21:37:21.900Z,64.70
2017-10-26T21:39:48.277Z,64.30
2017-10-26T21:42:14.814Z,62.90
2017-10-26T21:44:41.907Z,62.90
2017-10-26T21:47:08.238Z,63.40
2017-10-26T21:49:34.585Z,63.70
2017-10-26T21:52:00.884Z,64.00
2017-10-26T21:54:27.237Z,64.20
2017-10-26T21:56:53.547Z,63.60
2017-10-26T21:59:19.852Z,64.40
2017-10-26T22:01:46.237Z,63.00
2017-10-26T22:04:12.561Z,63.90
2017-10-26T22:06:39.689Z,63.20
2017-10-26T22:09:06.010Z,63.70
2017-10-26T22:11:32.354Z,64.10
2017-10-26T22:13:58.670Z,64.50
2017-10-26T22:16:27.423Z,64.70
2017-10-26T22:18:53.755Z,65.20
2017-10-26T22:21:24.476Z,64.40
2017-10-26T22:23:50.784Z,64.50
2017-10-26T22:26:17.086Z,64.30
2017-10-26T22:28:43.432Z,64.40
2017-10-26T22:31:09.750Z,65.10
2017-10-26T22:33:36.085Z,65.50
2017-10-26T22:36:02.438Z,65.10
2017-10-26T22:38:30.944Z,63.80
2017-10-26T22:40:58.484Z,64.30
2017-10-26T22:43:24.914Z,63.60
2017-10-26T22:45:51.294Z,65.00
2017-10-26T22:48:17.619Z,65.70
2017-10-26T22:50:43.945Z,66.20
2017-10-26T22:53:11.021Z,65.60
2017-10-26T22:55:39.040Z,65.60
2017-10-26T22:58:05.386Z,65.30
2017-10-26T23:00:31.757Z,65.00
2017-10-26T23:03:00.969Z,64.50
2017-10-26T23:05:27.365Z,64.80
2017-10-26T23:07:53.681Z,64.70
2017-10-26T23:10:20.141Z,65.50
2017-10-26T23:12:46.453Z,65.00
2017-10-26T23:15:12.777Z,65.80
2017-10-26T23:17:40.004Z,65.30
2017-10-26T23:20:06.361Z,65.40
2017-10-26T23:22:32.714Z,65.20
2017-10-26T23:24:59.024Z,65.20
2017-10-26T23:27:25.427Z,64.90
2017-10-26T23:29:51.754Z,64.40
2017-10-26T23:32:18.066Z,64.50
2017-10-26T23:34:44.396Z,64.90
2017-10-26T23:37:11.443Z,64.20
2017-10-26T23:39:37.760Z,64.20
2017-10-26T23:42:04.175Z,65.60
2017-10-26T23:44:30.561Z,65.20
2017-10-26T23:46:56.873Z,65.20
2017-10-26T23:49:24.051Z,65.30
2017-10-26T23:51:51.299Z,65.40
2017-10-26T23:54:21.978Z,65.00
2017-10-26T23:56:48.304Z,64.90
2017-10-26T23:59:17.539Z,64.40
